createdAt,value
2022-09-17T00:01:03.223Z,-84
2022-09-17T00:03:29.755Z,-82
2022-09-17T00:06:05.179Z,-84
2022-09-17T00:08:33.053Z,-84
2022-09-17T00:11:07.268Z,-84
2022-09-17T00:13:34.050Z,-84
2022-09-17T00:16:00.733Z,-83
2022-09-17T00:18:27.337Z,-82
2022-09-17T00:20:54.073Z,-85
2022-09-17T00:23:20.561Z,-82
2022-09-17T00:25:47.061Z,-84
2022-09-17T00:28:15.040Z,-84
2022-09-17T00:30:44.544Z,-85
2022-09-17T00:33:13.432Z,-84
2022-09-17T00:35:40.008Z,-84
2022-09-17T00:38:06.548Z,-83
2022-09-17T00:40:33.199Z,-84
2022-09-17T00:42:59.871Z,-84
2022-09-17T00:45:27.767Z,-83
2022-09-17T00:47:58.930Z,-85
2022-09-17T00:50:35.722Z,-84
2022-09-17T00:53:08.106Z,-84
2022-09-17T00:55:40.734Z,-83
2022-09-17T00:58:10.927Z,-86
2022-09-17T01:00:39.839Z,-86
2022-09-17T01:03:06.661Z,-85
2022-09-17T01:05:39.246Z,-83
2022-09-17T01:08:39.568Z,-85
2022-09-17T01:11:20.824Z,-83
2022-09-17T01:14:17.659Z,-83
2022-09-17T01:16:59.682Z,-83
2022-09-17T01:19:48.079Z,-83
2022-09-17T01:22:45.087Z,-83
2022-09-17T01:25:25.713Z,-82
2022-09-17T01:28:16.571Z,-82
2022-09-17T01:31:01.958Z,-83
2022-09-17T01:33:45.884Z,-82
2022-09-17T01:36:21.180Z,-82
2022-09-17T01:39:12.722Z,-83
2022-09-17T01:41:54.806Z,-83
2022-09-17T01:44:33.664Z,-83
2022-09-17T01:47:26.594Z,-83
2022-09-17T01:50:03.301Z,-82
2022-09-17T01:52:34.407Z,-82
2022-09-17T01:55:07.800Z,-82
2022-09-17T01:58:03.007Z,-82
2022-09-17T02:00:30.308Z,-83
2022-09-17T02:03:04.790Z,-83
2022-09-17T02:05:39.935Z,-83
2022-09-17T02:08:11.603Z,-83
2022-09-17T02:10:49.734Z,-58
2022-09-17T02:13:19.314Z,-83
2022-09-17T02:15:49.623Z,-84
2022-09-17T02:18:23.261Z,-83
2022-09-17T02:20:52.669Z,-83
2022-09-17T02:23:23.292Z,-83
2022-09-17T02:26:18.816Z,-84
2022-09-17T02:28:50.026Z,-85
2022-09-17T02:31:17.724Z,-83
2022-09-17T02:33:46.578Z,-83
2022-09-17T02:36:13.000Z,-83
2022-09-17T02:38:41.390Z,-83
2022-09-17T02:41:14.451Z,-84
2022-09-17T02:43:43.943Z,-84
2022-09-17T02:46:39.644Z,-83
2022-09-17T02:49:22.170Z,-83
2022-09-17T02:51:51.405Z,-83
2022-09-17T02:54:31.106Z,-84
2022-09-17T02:57:19.545Z,-84
2022-09-17T03:00:09.449Z,-83
2022-09-17T03:02:38.668Z,-83
2022-09-17T03:05:06.715Z,-83
2022-09-17T03:07:33.512Z,-84
2022-09-17T03:10:00.752Z,-84
2022-09-17T03:12:27.507Z,-84
2022-09-17T03:14:53.928Z,-84
2022-09-17T03:17:20.336Z,-83
2022-09-17T03:19:46.792Z,-83
2022-09-17T03:22:13.228Z,-82
2022-09-17T03:24:39.732Z,-83
2022-09-17T03:27:06.120Z,-84
2022-09-17T03:29:32.628Z,-83
2022-09-17T03:31:59.541Z,-83
2022-09-17T03:34:25.917Z,-83
2022-09-17T03:36:52.327Z,-83
2022-09-17T03:39:18.960Z,-82
2022-09-17T03:41:45.394Z,-82
2022-09-17T03:44:11.776Z,-83
2022-09-17T03:46:38.286Z,-83
2022-09-17T03:49:04.771Z,-83
2022-09-17T03:51:31.324Z,-82
2022-09-17T03:53:59.708Z,-83
2022-09-17T03:56:26.844Z,-83
2022-09-17T03:58:57.158Z,-83
2022-09-17T04:01:23.697Z,-82
2022-09-17T04:03:50.150Z,-83
2022-09-17T04:06:16.530Z,-82
2022-09-17T04:08:43.684Z,-83
2022-09-17T04:11:10.210Z,-83
2022-09-17T04:13:36.630Z,-84
2022-09-17T04:16:03.215Z,-84
2022-09-17T04:18:29.812Z,-83
2022-09-17T04:20:56.444Z,-83
2022-09-17T04:23:23.428Z,-84
2022-09-17T04:25:49.838Z,-84
2022-09-17T04:28:16.233Z,-85
2022-09-17T04:30:45.690Z,-83
2022-09-17T04:33:12.417Z,-84
2022-09-17T04:35:38.866Z,-83
2022-09-17T04:38:05.234Z,-83
2022-09-17T04:40:31.733Z,-83
2022-09-17T04:43:03.303Z,-84
2022-09-17T04:45:30.614Z,-84
2022-09-17T04:47:57.581Z,-84
2022-09-17T04:50:24.180Z,-81
2022-09-17T04:52:50.585Z,-82
2022-09-17T04:55:17.103Z,-81
2022-09-17T04:57:51.454Z,-83
2022-09-17T05:00:18.640Z,-82
2022-09-17T05:02:49.386Z,-82
2022-09-17T05:05:16.502Z,-83
2022-09-17T05:07:43.226Z,-81
2022-09-17T05:10:10.915Z,-83
2022-09-17T05:12:37.409Z,-83
2022-09-17T05:15:06.708Z,-82
2022-09-17T05:17:33.094Z,-81
2022-09-17T05:19:59.483Z,-82
2022-09-17T05:22:26.610Z,-83
2022-09-17T05:24:52.987Z,-83
2022-09-17T05:27:19.333Z,-83
2022-09-17T05:29:45.765Z,-83
2022-09-17T05:32:12.158Z,-81
2022-09-17T05:34:38.585Z,-82
2022-09-17T05:37:04.954Z,-82
2022-09-17T05:39:31.368Z,-81
2022-09-17T05:41:57.840Z,-81
2022-09-17T05:44:25.963Z,-82
2022-09-17T05:46:53.016Z,-81
2022-09-17T05:49:19.440Z,-81
2022-09-17T05:51:45.826Z,-81
2022-09-17T05:54:12.237Z,-83
2022-09-17T05:56:38.762Z,-83
2022-09-17T05:59:05.175Z,-84
2022-09-17T06:01:31.722Z,-81
2022-09-17T06:03:58.641Z,-82
2022-09-17T06:06:25.081Z,-81
2022-09-17T06:08:51.598Z,-81
2022-09-17T06:11:17.976Z,-82
2022-09-17T06:13:44.375Z,-82
2022-09-17T06:16:10.873Z,-81
2022-09-17T06:18:37.361Z,-83
2022-09-17T06:21:04.191Z,-81
2022-09-17T06:23:35.319Z,-82
2022-09-17T06:26:02.929Z,-82
2022-09-17T06:28:29.593Z,-83
2022-09-17T06:31:00.231Z,-82
2022-09-17T06:33:26.967Z,-82
2022-09-17T06:36:00.945Z,-82
2022-09-17T06:38:31.687Z,-82
2022-09-17T06:40:58.264Z,-82
2022-09-17T06:43:25.189Z,-81
2022-09-17T06:46:02.066Z,-81
2022-09-17T06:48:29.254Z,-82
2022-09-17T06:50:55.806Z,-83
2022-09-17T06:53:22.940Z,-82
2022-09-17T06:55:49.702Z,-80
2022-09-17T06:58:16.097Z,-81
2022-09-17T07:00:42.553Z,-81
2022-09-17T07:03:09.388Z,-82
2022-09-17T07:05:35.777Z,-81
2022-09-17T07:08:03.606Z,-82
2022-09-17T07:10:30.367Z,-83
2022-09-17T07:12:56.855Z,-82
2022-09-17T07:15:23.292Z,-81
2022-09-17T07:17:49.745Z,-83
2022-09-17T07:20:16.155Z,-83
2022-09-17T07:22:42.550Z,-82
2022-09-17T07:25:09.328Z,-82
2022-09-17T07:27:35.739Z,-82
2022-09-17T07:30:02.543Z,-82
2022-09-17T07:32:30.497Z,-82
2022-09-17T07:34:58.362Z,-82
2022-09-17T07:37:24.879Z,-81
2022-09-17T07:39:51.275Z,-82
2022-09-17T07:42:17.674Z,-78
2022-09-17T07:44:44.300Z,-83
2022-09-17T07:47:10.735Z,-82
2022-09-17T07:49:37.314Z,-83
2022-09-17T07:52:06.527Z,-82
2022-09-17T07:54:37.431Z,-82
2022-09-17T07:57:04.453Z,-82
2022-09-17T07:59:31.090Z,-81
2022-09-17T08:01:57.538Z,-82
2022-09-17T08:04:24.114Z,-82
2022-09-17T08:06:50.471Z,-82
2022-09-17T08:09:18.602Z,-82
2022-09-17T08:11:55.584Z,-83
2022-09-17T08:14:28.455Z,-82
2022-09-17T08:16:56.053Z,-84
2022-09-17T08:19:22.454Z,-60
2022-09-17T08:21:49.000Z,-60
2022-09-17T08:24:15.564Z,-61
2022-09-17T08:26:42.069Z,-61
2022-09-17T08:29:08.614Z,-61
2022-09-17T08:31:35.205Z,-60
2022-09-17T08:34:01.976Z,-83
2022-09-17T08:36:28.699Z,-82
2022-09-17T08:38:55.981Z,-82
2022-09-17T08:41:22.810Z,-84
2022-09-17T08:43:49.671Z,-81
2022-09-17T08:46:16.273Z,-83
2022-09-17T08:48:44.810Z,-82
2022-09-17T08:51:17.426Z,-83
2022-09-17T08:53:54.815Z,-82
2022-09-17T08:56:21.981Z,-82
2022-09-17T08:58:52.405Z,-83
2022-09-17T09:01:25.315Z,-82
2022-09-17T09:04:11.143Z,-83
2022-09-17T09:06:42.018Z,-83
2022-09-17T09:09:11.987Z,-82
2022-09-17T09:11:38.963Z,-82
2022-09-17T09:14:23.950Z,-82
2022-09-17T09:16:52.583Z,-84
2022-09-17T09:19:21.829Z,-81
2022-09-17T09:21:54.617Z,-80
2022-09-17T09:24:26.207Z,-80
2022-09-17T09:27:05.658Z,-78
2022-09-17T09:29:31.981Z,-81
2022-09-17T09:32:15.250Z,-80
2022-09-17T09:34:42.646Z,-81
2022-09-17T09:37:18.159Z,-80
2022-09-17T09:39:46.400Z,-80
2022-09-17T09:42:28.967Z,-80
2022-09-17T09:45:00.486Z,-79
2022-09-17T09:47:43.729Z,-80
2022-09-17T09:50:20.537Z,-82
2022-09-17T09:52:46.969Z,-82
2022-09-17T09:55:36.472Z,-82
2022-09-17T09:58:12.218Z,-82
2022-09-17T10:00:39.659Z,-82
2022-09-17T10:03:27.100Z,-82
2022-09-17T10:05:58.663Z,-83
2022-09-17T10:08:25.870Z,-80
2022-09-17T10:10:58.269Z,-82
2022-09-17T10:13:25.046Z,-81
2022-09-17T10:15:51.754Z,-80
2022-09-17T10:18:19.525Z,-81
2022-09-17T10:20:51.601Z,-81
2022-09-17T10:23:18.217Z,-81
2022-09-17T10:25:45.049Z,-81
2022-09-17T10:28:24.301Z,-79
2022-09-17T10:30:58.844Z,-80
2022-09-17T10:33:31.981Z,-80
2022-09-17T10:36:06.340Z,-81
2022-09-17T10:38:35.072Z,-80
2022-09-17T10:41:10.770Z,-81
2022-09-17T10:43:37.169Z,-81
2022-09-17T10:46:04.260Z,-82
2022-09-17T10:48:38.545Z,-80
2022-09-17T10:51:06.751Z,-81
2022-09-17T10:53:35.898Z,-81
2022-09-17T10:56:21.014Z,-82
2022-09-17T10:58:55.131Z,-81
2022-09-17T11:01:30.108Z,-83
2022-09-17T11:03:59.410Z,-82
2022-09-17T11:06:45.706Z,-81
2022-09-17T11:09:12.087Z,-82
2022-09-17T11:11:38.945Z,-82
2022-09-17T11:14:18.003Z,-81
2022-09-17T11:17:03.582Z,-82
2022-09-17T11:19:34.422Z,-79
2022-09-17T11:22:11.711Z,-80
2022-09-17T11:24:48.813Z,-81
2022-09-17T11:27:22.587Z,-81
2022-09-17T11:30:07.529Z,-83
2022-09-17T11:32:33.885Z,-82
2022-09-17T11:35:02.962Z,-82
2022-09-17T11:37:49.117Z,-82
2022-09-17T11:40:19.378Z,-84
2022-09-17T11:42:48.136Z,-84
2022-09-17T11:45:20.178Z,-84
2022-09-17T11:47:52.859Z,-84
2022-09-17T11:50:25.959Z,-83
2022-09-17T11:53:01.664Z,-84
2022-09-17T11:55:33.959Z,-84
2022-09-17T11:58:02.756Z,-85
2022-09-17T12:00:29.797Z,-87
2022-09-17T12:03:06.995Z,-84
2022-09-17T12:05:54.059Z,-83
2022-09-17T12:08:34.297Z,-84
2022-09-17T12:11:10.175Z,-85
2022-09-17T12:13:40.486Z,-84
2022-09-17T12:16:10.581Z,-80
2022-09-17T12:18:55.462Z,-82
2022-09-17T12:21:25.680Z,-82
2022-09-17T12:24:24.507Z,-82
2022-09-17T12:27:06.041Z,-86
2022-09-17T12:29:50.804Z,-85
2022-09-17T12:32:20.263Z,-87
2022-09-17T12:34:58.901Z,-85
2022-09-17T12:37:44.510Z,-86
2022-09-17T12:40:17.038Z,-86
2022-09-17T12:42:59.544Z,-84
2022-09-17T12:45:36.552Z,-84
2022-09-17T12:48:11.807Z,-85
2022-09-17T12:50:44.302Z,-86
2022-09-17T12:53:30.580Z,-87
2022-09-17T12:56:00.147Z,-86
2022-09-17T12:58:45.278Z,-86
2022-09-17T13:01:18.075Z,-86
2022-09-17T13:03:47.327Z,-86
2022-09-17T13:06:46.775Z,-88
2022-09-17T13:09:31.941Z,-85
2022-09-17T13:12:03.827Z,-86
2022-09-17T13:14:45.323Z,-86
2022-09-17T13:17:19.612Z,-86
2022-09-17T13:19:59.638Z,-84
2022-09-17T13:22:34.186Z,-82
2022-09-17T13:25:02.871Z,-84
2022-09-17T13:27:29.378Z,-85
2022-09-17T13:29:55.770Z,-85
2022-09-17T13:32:37.454Z,-84
2022-09-17T13:35:06.685Z,-85
2022-09-17T13:37:34.638Z,-84
2022-09-17T13:40:01.337Z,-84
2022-09-17T13:42:31.990Z,-83
2022-09-17T13:45:01.949Z,-84
2022-09-17T13:47:30.671Z,-82
2022-09-17T13:50:02.218Z,-83
2022-09-17T13:52:31.215Z,-84
2022-09-17T13:54:57.722Z,-84
2022-09-17T13:57:24.201Z,-85
2022-09-17T13:59:59.859Z,-86
2022-09-17T14:02:30.862Z,-86
2022-09-17T14:05:18.043Z,-86
2022-09-17T14:07:49.070Z,-84
2022-09-17T14:10:15.546Z,-85
2022-09-17T14:12:43.143Z,-83
2022-09-17T14:15:28.416Z,-84
2022-09-17T14:17:55.039Z,-82
2022-09-17T14:20:22.779Z,-85
2022-09-17T14:22:56.975Z,-82
2022-09-17T14:25:29.252Z,-83
2022-09-17T14:27:59.026Z,-83
2022-09-17T14:30:33.053Z,-82
2022-09-17T14:33:05.641Z,-83
2022-09-17T14:35:45.127Z,-83
2022-09-17T14:38:11.563Z,-84
2022-09-17T14:40:42.163Z,-84
2022-09-17T14:43:15.282Z,-84
2022-09-17T14:45:42.645Z,-86
2022-09-17T14:48:29.319Z,-85
2022-09-17T14:51:14.298Z,-83
2022-09-17T14:53:40.706Z,-86
2022-09-17T14:56:09.195Z,-82
2022-09-17T14:58:37.790Z,-82
2022-09-17T15:01:04.193Z,-87
2022-09-17T15:03:30.623Z,-85
2022-09-17T15:05:57.258Z,-83
2022-09-17T15:08:25.083Z,-83
2022-09-17T15:11:07.418Z,-86
2022-09-17T15:13:41.345Z,-80
2022-09-17T15:16:16.817Z,-81
2022-09-17T15:18:47.274Z,-83
2022-09-17T15:21:36.008Z,-83
2022-09-17T15:24:13.292Z,-83
2022-09-17T15:26:41.811Z,-84
2022-09-17T15:29:11.394Z,-83
2022-09-17T15:31:37.908Z,-84
2022-09-17T15:34:04.646Z,-85
2022-09-17T15:36:31.941Z,-84
2022-09-17T15:38:59.168Z,-84
2022-09-17T15:41:30.734Z,-84
2022-09-17T15:44:31.105Z,-84
2022-09-17T15:47:18.285Z,-83
2022-09-17T15:50:03.899Z,-84
2022-09-17T15:52:34.518Z,-83
2022-09-17T15:55:01.230Z,-83
2022-09-17T15:57:29.708Z,-84
2022-09-17T15:59:56.570Z,-85
2022-09-17T16:02:30.628Z,-83
2022-09-17T16:05:09.428Z,-84
2022-09-17T16:07:35.850Z,-84
2022-09-17T16:10:02.206Z,-83
2022-09-17T16:12:31.444Z,-85
2022-09-17T16:15:01.275Z,-84
2022-09-17T16:17:29.920Z,-84
2022-09-17T16:19:56.547Z,-84
2022-09-17T16:22:23.924Z,-85
2022-09-17T16:24:51.251Z,-85
2022-09-17T16:27:30.735Z,-83
2022-09-17T16:30:03.740Z,-83
2022-09-17T16:32:30.993Z,-84
2022-09-17T16:34:59.633Z,-85
2022-09-17T16:37:26.943Z,-84
2022-09-17T16:39:53.779Z,-85
2022-09-17T16:42:20.639Z,-85
2022-09-17T16:44:47.917Z,-86
2022-09-17T16:47:14.516Z,-84
2022-09-17T16:49:41.495Z,-88
2022-09-17T16:52:07.963Z,-84
2022-09-17T16:54:34.418Z,-85
2022-09-17T16:57:01.413Z,-85
2022-09-17T16:59:27.979Z,-82
2022-09-17T17:01:55.049Z,-88
2022-09-17T17:04:21.630Z,-87
2022-09-17T17:06:48.348Z,-87
2022-09-17T17:09:15.158Z,-84
2022-09-17T17:11:42.850Z,-86
2022-09-17T17:14:13.994Z,-84
2022-09-17T17:16:42.937Z,-84
2022-09-17T17:19:09.829Z,-82
2022-09-17T17:21:36.426Z,-83
2022-09-17T17:24:03.530Z,-84
2022-09-17T17:26:30.066Z,-82
2022-09-17T17:28:56.494Z,-83
2022-09-17T17:31:22.916Z,-84
2022-09-17T17:33:49.472Z,-83
2022-09-17T17:36:15.903Z,-83
2022-09-17T17:38:44.532Z,-85
2022-09-17T17:41:12.136Z,-84
2022-09-17T17:43:38.584Z,-82
2022-09-17T17:46:06.270Z,-83
2022-09-17T17:48:32.873Z,-83
2022-09-17T17:51:06.964Z,-84
2022-09-17T17:53:34.315Z,-84
2022-09-17T17:56:02.085Z,-84
2022-09-17T17:58:29.088Z,-84
2022-09-17T18:00:55.701Z,-84
2022-09-17T18:03:25.483Z,-83
2022-09-17T18:05:58.613Z,-84
2022-09-17T18:08:25.581Z,-84
2022-09-17T18:10:53.543Z,-85
2022-09-17T18:13:20.490Z,-83
2022-09-17T18:15:56.379Z,-86
2022-09-17T18:18:24.036Z,-84
2022-09-17T18:20:52.108Z,-85
2022-09-17T18:23:19.355Z,-84
2022-09-17T18:25:52.588Z,-85
2022-09-17T18:28:20.267Z,-85
2022-09-17T18:30:47.687Z,-83
2022-09-17T18:33:19.854Z,-85
2022-09-17T18:35:46.864Z,-84
2022-09-17T18:38:13.647Z,-86
2022-09-17T18:40:41.478Z,-84
2022-09-17T18:43:09.127Z,-84
2022-09-17T18:45:35.846Z,-85
2022-09-17T18:48:05.334Z,-85
2022-09-17T18:50:31.883Z,-84
2022-09-17T18:52:58.320Z,-86
2022-09-17T18:55:24.767Z,-85
2022-09-17T18:57:51.776Z,-85
2022-09-17T19:00:20.355Z,-85
2022-09-17T19:02:50.047Z,-85
2022-09-17T19:05:19.225Z,-85
2022-09-17T19:07:46.540Z,-84
2022-09-17T19:10:13.459Z,-85
2022-09-17T19:12:40.100Z,-84
2022-09-17T19:15:07.608Z,-84
2022-09-17T19:17:34.001Z,-84
2022-09-17T19:20:00.720Z,-84
2022-09-17T19:22:27.469Z,-84
2022-09-17T19:24:54.450Z,-85
2022-09-17T19:27:20.864Z,-85
2022-09-17T19:29:47.263Z,-87
2022-09-17T19:32:13.680Z,-87
2022-09-17T19:34:40.091Z,-85
2022-09-17T19:37:06.625Z,-85
2022-09-17T19:39:33.045Z,-85
2022-09-17T19:41:59.603Z,-85
2022-09-17T19:44:26.366Z,-85
2022-09-17T19:46:53.351Z,-84
2022-09-17T19:49:19.938Z,-86
2022-09-17T19:51:46.441Z,-86
2022-09-17T19:54:12.994Z,-85
2022-09-17T19:56:39.926Z,-86
2022-09-17T19:59:06.470Z,-85
2022-09-17T20:01:34.962Z,-85
2022-09-17T20:04:01.505Z,-86
2022-09-17T20:06:27.934Z,-86
2022-09-17T20:08:54.831Z,-85
2022-09-17T20:11:22.493Z,-86
2022-09-17T20:13:49.366Z,-85
2022-09-17T20:16:20.606Z,-85
2022-09-17T20:18:47.628Z,-85
2022-09-17T20:21:17.886Z,-85
2022-09-17T20:23:46.569Z,-86
2022-09-17T20:26:13.405Z,-85
2022-09-17T20:28:39.962Z,-57
2022-09-17T20:31:08.501Z,-59
2022-09-17T20:33:34.929Z,-57
2022-09-17T20:36:02.181Z,-58
2022-09-17T20:41:15.666Z,-58
2022-09-17T20:43:43.195Z,-59
2022-09-17T20:46:10.377Z,-59
2022-09-17T20:48:37.173Z,-57
2022-09-17T20:51:05.414Z,-57
2022-09-17T20:53:33.928Z,-57
2022-09-17T20:56:01.609Z,-58
2022-09-17T20:58:32.215Z,-57
2022-09-17T21:01:07.260Z,-58
2022-09-17T21:03:33.862Z,-58
2022-09-17T21:06:00.341Z,-58
2022-09-17T21:08:27.055Z,-57
2022-09-17T21:10:54.163Z,-57
2022-09-17T21:13:20.586Z,-57
2022-09-17T21:15:59.825Z,-56
2022-09-17T21:18:27.174Z,-57
2022-09-17T21:20:53.820Z,-57
2022-09-17T21:23:24.443Z,-57
2022-09-17T21:25:50.930Z,-60
2022-09-17T21:28:20.512Z,-57
2022-09-17T21:30:50.792Z,-58
2022-09-17T21:33:22.162Z,-57
2022-09-17T21:35:49.888Z,-58
2022-09-17T21:38:19.347Z,-57
2022-09-17T21:40:58.515Z,-57
2022-09-17T21:43:25.620Z,-57
2022-09-17T21:45:59.630Z,-57
2022-09-17T21:48:28.700Z,-57
2022-09-17T21:51:00.829Z,-58
2022-09-17T21:53:27.274Z,-56
2022-09-17T21:55:53.712Z,-56
2022-09-17T21:58:20.246Z,-56
2022-09-17T22:00:49.496Z,-57
2022-09-17T22:03:17.041Z,-57
2022-09-17T22:05:43.483Z,-57
2022-09-17T22:08:09.894Z,-57
2022-09-17T22:10:36.282Z,-57
2022-09-17T22:13:02.678Z,-57
2022-09-17T22:15:29.188Z,-56
2022-09-17T22:17:55.593Z,-57
2022-09-17T22:20:25.643Z,-56
2022-09-17T22:22:52.226Z,-57
2022-09-17T22:25:18.650Z,-56
2022-09-17T22:28:10.087Z,-57
2022-09-17T22:30:35.722Z,-57
2022-09-17T22:33:02.151Z,-57
2022-09-17T22:35:28.539Z,-57
2022-09-17T22:37:54.948Z,-57
2022-09-17T22:40:21.489Z,-62
2022-09-17T22:42:47.948Z,-57
2022-09-17T22:45:14.415Z,-58
2022-09-17T22:47:41.173Z,-58
2022-09-17T22:50:07.868Z,-58
2022-09-17T22:52:34.244Z,-58
2022-09-17T22:55:00.656Z,-58
2022-09-17T22:57:27.053Z,-58
2022-09-17T22:59:53.441Z,-58
2022-09-17T23:02:19.912Z,-57
2022-09-17T23:04:46.405Z,-58
2022-09-17T23:07:12.851Z,-57
2022-09-17T23:09:39.266Z,-58
2022-09-17T23:12:05.727Z,-58
2022-09-17T23:14:32.255Z,-58
2022-09-17T23:16:58.729Z,-58
2022-09-17T23:19:25.431Z,-58
2022-09-17T23:21:52.026Z,-58
2022-09-17T23:24:20.312Z,-57
2022-09-17T23:26:47.080Z,-58
2022-09-17T23:29:13.693Z,-58
2022-09-17T23:31:40.397Z,-58
2022-09-17T23:34:06.878Z,-58
2022-09-17T23:36:35.188Z,-58
2022-09-17T23:39:04.789Z,-58
2022-09-17T23:41:32.728Z,-57
2022-09-17T23:44:00.538Z,-57
2022-09-17T23:46:28.522Z,-58
2022-09-17T23:48:54.999Z,-58
2022-09-17T23:51:22.242Z,-58
2022-09-17T23:53:48.885Z,-58
2022-09-17T23:56:16.440Z,-58
2022-09-17T23:58:42.837Z,-58
